createdAt,value
2022-08-26T00:07:16.340Z,12.05
2022-08-26T00:17:40.398Z,12.13
2022-08-26T00:28:04.005Z,11.10
2022-08-26T00:38:26.099Z,11.60
2022-08-26T00:48:54.905Z,12.33
2022-08-26T00:59:18.647Z,11.68
2022-08-26T01:09:41.341Z,10.88
2022-08-26T01:20:11.495Z,10.87
2022-08-26T01:30:38.610Z,11.13
2022-08-26T01:41:02.701Z,11.75
2022-08-26T01:51:27.413Z,10.80
2022-08-26T02:01:49.873Z,11.75
2022-08-26T02:12:17.767Z,11.50
2022-08-26T02:22:40.391Z,12.02
2022-08-26T02:33:04.463Z,12.20
2022-08-26T02:43:32.686Z,13.40
2022-08-26T02:53:55.954Z,12.50
2022-08-26T03:04:17.974Z,12.02
2022-08-26T03:14:41.690Z,11.80
2022-08-26T03:25:04.622Z,12.85
2022-08-26T03:35:27.590Z,13.63
2022-08-26T03:45:50.802Z,13.43
2022-08-26T03:56:14.883Z,13.63
2022-08-26T04:06:40.077Z,13.68
2022-08-26T04:17:05.008Z,13.90
2022-08-26T04:27:27.489Z,15.25
2022-08-26T04:37:51.073Z,14.13
2022-08-26T04:48:12.865Z,14.32
2022-08-26T04:58:41.195Z,13.70
2022-08-26T05:09:03.228Z,13.57
2022-08-26T05:19:27.922Z,13.75
2022-08-26T05:29:54.572Z,12.32
2022-08-26T05:40:18.491Z,11.98
2022-08-26T05:50:43.712Z,11.82
2022-08-26T06:01:12.297Z,12.32
2022-08-26T06:11:34.308Z,12.18
2022-08-26T06:21:57.254Z,13.13
2022-08-26T06:32:18.628Z,12.43
2022-08-26T06:42:43.059Z,9.70
2022-08-26T06:53:07.284Z,9.85
2022-08-26T07:03:32.925Z,11.18
2022-08-26T07:14:01.817Z,9.70
2022-08-26T07:24:24.736Z,9.70
2022-08-26T07:34:50.738Z,9.35
2022-08-26T07:45:14.101Z,7.70
2022-08-26T07:55:36.019Z,8.10
2022-08-26T08:06:00.700Z,7.15
2022-08-26T08:16:22.769Z,8.80
2022-08-26T08:26:48.143Z,7.30
2022-08-26T08:37:10.840Z,7.72
2022-08-26T08:47:38.348Z,6.95
2022-08-26T08:58:08.053Z,6.45
2022-08-26T09:08:36.850Z,6.00
2022-08-26T09:19:07.305Z,6.82
2022-08-26T09:29:32.038Z,5.70
2022-08-26T09:39:53.719Z,6.72
2022-08-26T09:50:29.202Z,6.45
2022-08-26T10:00:57.320Z,5.55
2022-08-26T10:11:27.026Z,6.63
2022-08-26T10:21:54.050Z,6.45
2022-08-26T10:32:25.203Z,7.60
2022-08-26T10:42:53.206Z,6.88
2022-08-26T10:53:24.850Z,7.35
2022-08-26T11:03:54.939Z,7.22
2022-08-26T11:14:40.715Z,7.80
2022-08-26T11:25:16.108Z,7.93
2022-08-26T11:35:49.456Z,10.70
2022-08-26T11:46:13.007Z,5.05
2022-08-26T11:56:38.087Z,3.60
2022-08-26T12:07:13.358Z,6.35
2022-08-26T12:18:20.531Z,7.22
2022-08-26T12:41:39.350Z,10.88
2022-08-26T12:52:02.502Z,13.30
2022-08-26T13:02:36.550Z,9.63
2022-08-26T13:12:59.373Z,10.37
2022-08-26T13:23:23.877Z,9.02
2022-08-26T13:33:50.150Z,10.37
2022-08-26T13:44:12.472Z,10.30
2022-08-26T13:54:35.601Z,10.68
2022-08-26T14:04:57.093Z,9.57
2022-08-26T14:15:20.243Z,8.18
2022-08-26T14:25:42.403Z,6.68
2022-08-26T14:36:22.674Z,7.22
2022-08-26T14:46:45.716Z,9.18
2022-08-26T14:57:09.464Z,9.15
2022-08-26T15:07:31.173Z,11.90
2022-08-26T15:17:53.850Z,10.82
2022-08-26T15:28:15.270Z,10.27
2022-08-26T15:38:40.006Z,10.48
2022-08-26T15:49:01.512Z,11.83
2022-08-26T15:59:24.078Z,11.13
2022-08-26T16:09:45.488Z,11.35
2022-08-26T16:20:14.835Z,11.23
2022-08-26T16:30:39.594Z,12.70
2022-08-26T17:03:27.478Z,12.27
2022-08-26T17:25:33.345Z,13.82
2022-08-26T17:36:18.904Z,13.70
2022-08-26T17:47:19.338Z,14.37
2022-08-26T17:57:53.500Z,15.65
2022-08-26T18:08:19.206Z,16.48
2022-08-26T18:18:42.238Z,16.48
2022-08-26T18:29:06.010Z,16.50
2022-08-26T18:39:29.144Z,16.20
2022-08-26T18:49:51.213Z,17.83
2022-08-26T19:00:14.824Z,17.25
2022-08-26T19:10:58.148Z,17.65
2022-08-26T19:33:14.790Z,18.52
2022-08-26T19:43:37.020Z,19.42
2022-08-26T19:54:01.516Z,20.73
2022-08-26T20:04:23.048Z,24.40
2022-08-26T20:14:49.409Z,22.48
2022-08-26T20:25:12.538Z,22.05
2022-08-26T20:35:36.703Z,22.20
2022-08-26T20:45:58.676Z,20.17
2022-08-26T20:56:24.498Z,21.08
2022-08-26T21:06:52.250Z,21.42
2022-08-26T21:17:19.953Z,18.25
2022-08-26T21:27:42.136Z,17.83
2022-08-26T21:38:06.061Z,16.90
2022-08-26T21:48:32.223Z,17.20
2022-08-26T21:58:58.283Z,16.95
2022-08-26T22:09:21.138Z,19.23
2022-08-26T22:19:46.181Z,17.73
2022-08-26T22:30:08.313Z,17.10
2022-08-26T22:40:34.980Z,17.10
2022-08-26T22:51:00.276Z,18.90
2022-08-26T23:01:23.122Z,16.40
2022-08-26T23:11:45.825Z,18.77
2022-08-26T23:22:08.635Z,17.55
2022-08-26T23:32:30.069Z,16.67
2022-08-26T23:42:53.813Z,18.38
2022-08-26T23:53:19.454Z,17.92
